createdAt,value
2018-09-15T00:00:25.677Z,76.9
2018-09-15T00:01:27.068Z,77.3
2018-09-15T00:02:28.455Z,77.2
2018-09-15T00:03:29.840Z,77.2
2018-09-15T00:04:31.234Z,77.3
2018-09-15T00:05:32.622Z,77.2
2018-09-15T00:06:34.015Z,77.5
2018-09-15T00:07:35.409Z,77.5
2018-09-15T00:08:36.800Z,77.9
2018-09-15T00:09:38.190Z,77.6
2018-09-15T00:10:39.586Z,78.0
2018-09-15T00:11:40.975Z,77.7
2018-09-15T00:12:42.367Z,77.9
2018-09-15T00:13:43.757Z,77.5
2018-09-15T00:14:45.147Z,77.6
2018-09-15T00:15:46.539Z,77.5
2018-09-15T00:16:47.926Z,77.8
2018-09-15T00:17:49.339Z,78.2
2018-09-15T00:18:50.709Z,77.8
2018-09-15T00:19:52.099Z,77.8
2018-09-15T00:20:53.491Z,77.8
2018-09-15T00:21:54.883Z,78.0
2018-09-15T00:22:56.335Z,77.6
2018-09-15T00:23:57.668Z,78.8
2018-09-15T00:24:59.060Z,78.3
2018-09-15T00:26:00.449Z,78.1
2018-09-15T00:27:01.838Z,78.6
2018-09-15T00:28:03.230Z,78.6
2018-09-15T00:29:04.620Z,78.7
2018-09-15T00:30:06.013Z,78.6
2018-09-15T00:31:07.407Z,79.3
2018-09-15T00:32:08.796Z,78.7
2018-09-15T00:33:10.187Z,79.6
2018-09-15T00:34:11.572Z,80.0
2018-09-15T00:35:12.963Z,80.2
2018-09-15T00:36:14.356Z,80.6
2018-09-15T00:37:15.837Z,80.7
2018-09-15T00:38:17.250Z,80.9
2018-09-15T00:39:18.629Z,80.9
2018-09-15T00:40:20.020Z,80.8
2018-09-15T00:41:21.409Z,80.4
2018-09-15T00:42:22.804Z,81.1
2018-09-15T00:43:24.187Z,81.2
2018-09-15T00:44:25.585Z,81.3
2018-09-15T00:45:26.989Z,81.4
2018-09-15T00:46:28.359Z,81.5
2018-09-15T00:47:29.742Z,81.7
2018-09-15T00:48:31.133Z,82.1
2018-09-15T00:49:32.522Z,82.3
2018-09-15T00:50:33.911Z,81.9
2018-09-15T00:51:35.300Z,82.4
2018-09-15T00:52:36.693Z,82.6
2018-09-15T00:53:38.079Z,82.7
2018-09-15T00:54:39.464Z,82.5
2018-09-15T00:55:40.857Z,83.0
2018-09-15T00:56:42.247Z,82.8
2018-09-15T00:57:43.638Z,83.6
2018-09-15T00:58:45.029Z,83.5
2018-09-15T00:59:46.424Z,83.5
2018-09-15T01:00:47.809Z,83.6
2018-09-15T01:01:49.196Z,83.3
2018-09-15T01:02:50.586Z,83.4
2018-09-15T01:03:51.972Z,83.6
2018-09-15T01:04:53.363Z,83.5
2018-09-15T01:05:54.756Z,83.4
2018-09-15T01:06:56.138Z,83.3
2018-09-15T01:07:57.526Z,83.4
2018-09-15T01:08:58.916Z,83.6
2018-09-15T01:10:00.309Z,83.7
2018-09-15T01:11:01.697Z,83.6
2018-09-15T01:12:03.083Z,83.6
2018-09-15T01:13:04.474Z,83.6
2018-09-15T01:14:05.877Z,83.7
2018-09-15T01:15:07.249Z,83.5
2018-09-15T01:16:08.639Z,83.2
2018-09-15T01:17:10.026Z,83.6
2018-09-15T01:18:11.415Z,84.2
2018-09-15T01:19:12.803Z,84.5
2018-09-15T01:20:14.190Z,84.2
2018-09-15T01:21:15.581Z,84.2
2018-09-15T01:22:16.967Z,84.4
2018-09-15T01:23:18.361Z,84.1
2018-09-15T01:24:19.745Z,83.8
2018-09-15T01:25:21.169Z,84.5
2018-09-15T01:26:22.573Z,84.4
2018-09-15T01:27:23.965Z,84.6
2018-09-15T01:28:25.354Z,84.7
2018-09-15T01:29:26.743Z,85.1
2018-09-15T01:30:28.130Z,85.5
2018-09-15T01:31:29.518Z,85.3
2018-09-15T01:32:30.908Z,85.3
2018-09-15T01:33:32.303Z,85.2
2018-09-15T01:34:33.688Z,85.4
2018-09-15T01:35:35.080Z,85.4
2018-09-15T01:36:36.458Z,84.9
2018-09-15T01:37:37.848Z,84.9
2018-09-15T01:38:39.239Z,85.2
2018-09-15T01:39:40.629Z,85.2
2018-09-15T01:40:42.016Z,85.0
2018-09-15T01:41:43.409Z,84.8
2018-09-15T01:42:44.795Z,84.7
2018-09-15T01:43:46.180Z,85.0
2018-09-15T01:44:47.568Z,84.8
2018-09-15T01:45:48.957Z,84.9
2018-09-15T01:46:50.352Z,85.1
2018-09-15T01:47:51.744Z,85.1
2018-09-15T01:48:53.137Z,85.5
2018-09-15T01:49:54.524Z,85.5
2018-09-15T01:50:55.912Z,85.4
2018-09-15T01:51:57.300Z,85.5
2018-09-15T01:52:58.690Z,85.5
2018-09-15T01:54:00.080Z,85.6
2018-09-15T01:55:01.473Z,85.6
2018-09-15T01:56:02.862Z,85.7
2018-09-15T01:57:04.246Z,85.6
2018-09-15T01:58:05.636Z,85.4
2018-09-15T01:59:07.025Z,85.0
2018-09-15T02:00:08.415Z,85.3
2018-09-15T02:01:09.802Z,85.5
2018-09-15T02:02:11.192Z,85.0
2018-09-15T02:03:12.581Z,85.3
2018-09-15T02:04:13.969Z,85.0
2018-09-15T02:05:15.356Z,85.7
2018-09-15T02:06:16.743Z,85.6
2018-09-15T02:07:18.131Z,85.5
2018-09-15T02:08:19.520Z,85.2
2018-09-15T02:09:20.913Z,85.4
2018-09-15T02:10:22.303Z,85.2
2018-09-15T02:11:23.691Z,85.3
2018-09-15T02:12:25.077Z,85.2
2018-09-15T02:13:26.513Z,85.6
2018-09-15T02:14:27.908Z,85.3
2018-09-15T02:15:29.295Z,85.1
2018-09-15T02:16:30.690Z,85.9
2018-09-15T02:17:32.082Z,86.0
2018-09-15T02:18:33.467Z,84.8
2018-09-15T02:19:34.857Z,85.5
2018-09-15T02:20:36.244Z,85.0
2018-09-15T02:21:37.632Z,85.0
2018-09-15T02:22:39.066Z,84.9
2018-09-15T02:23:40.415Z,85.7
2018-09-15T02:24:41.800Z,85.3
2018-09-15T02:25:43.189Z,85.8
2018-09-15T02:26:44.576Z,85.3
2018-09-15T02:27:45.964Z,85.7
2018-09-15T02:28:47.361Z,85.8
2018-09-15T02:29:48.742Z,85.8
2018-09-15T02:30:50.133Z,85.8
2018-09-15T02:31:51.523Z,85.8
2018-09-15T02:32:52.911Z,85.9
2018-09-15T02:33:54.302Z,85.9
2018-09-15T02:34:55.688Z,86.2
2018-09-15T02:35:57.093Z,85.8
2018-09-15T02:36:58.481Z,85.6
2018-09-15T02:37:59.870Z,86.0
2018-09-15T02:39:01.258Z,86.2
2018-09-15T02:40:02.647Z,86.6
2018-09-15T02:41:04.035Z,86.6
2018-09-15T02:42:05.425Z,86.7
2018-09-15T02:43:06.814Z,86.2
2018-09-15T02:44:08.205Z,86.7
2018-09-15T02:45:09.594Z,86.7
2018-09-15T02:46:10.984Z,86.9
2018-09-15T02:47:12.371Z,87.1
2018-09-15T02:48:13.761Z,87.0
2018-09-15T02:49:15.150Z,87.0
2018-09-15T02:50:16.537Z,87.3
2018-09-15T02:51:17.927Z,87.4
2018-09-15T02:52:19.321Z,87.7
2018-09-15T02:53:20.708Z,87.7
2018-09-15T02:54:22.094Z,87.6
2018-09-15T02:55:23.480Z,87.6
2018-09-15T02:56:24.867Z,88.1
2018-09-15T02:57:26.257Z,88.3
2018-09-15T02:58:27.645Z,88.5
2018-09-15T02:59:29.033Z,87.9
2018-09-15T03:00:30.422Z,88.2
2018-09-15T03:01:31.821Z,88.2
2018-09-15T03:02:33.227Z,88.0
2018-09-15T03:03:34.636Z,88.1
2018-09-15T03:04:36.033Z,88.2
2018-09-15T03:05:37.420Z,88.0
2018-09-15T03:06:38.810Z,88.1
2018-09-15T03:07:40.200Z,88.9
2018-09-15T03:08:41.588Z,88.9
2018-09-15T03:09:42.973Z,88.7
2018-09-15T03:10:44.378Z,89.2
2018-09-15T03:11:45.753Z,88.5
2018-09-15T03:12:47.140Z,88.5
2018-09-15T03:13:48.531Z,88.9
2018-09-15T03:14:49.922Z,88.9
2018-09-15T03:15:51.308Z,89.2
2018-09-15T03:16:52.692Z,89.1
2018-09-15T03:17:54.085Z,89.4
2018-09-15T03:18:55.470Z,89.2
2018-09-15T03:19:56.855Z,89.6
2018-09-15T03:20:58.247Z,89.8
2018-09-15T03:21:59.637Z,89.8
2018-09-15T03:23:01.025Z,89.6
2018-09-15T03:24:02.468Z,89.9
2018-09-15T03:25:03.859Z,89.6
2018-09-15T03:26:05.243Z,89.9
2018-09-15T03:27:06.634Z,90.0
2018-09-15T03:28:08.028Z,90.0
2018-09-15T03:29:09.419Z,90.4
2018-09-15T03:30:10.808Z,90.6
2018-09-15T03:31:12.210Z,90.8
2018-09-15T03:32:13.586Z,90.5
2018-09-15T03:33:14.977Z,90.6
2018-09-15T03:34:16.363Z,90.5
2018-09-15T03:35:17.756Z,90.2
2018-09-15T03:36:19.145Z,90.4
2018-09-15T03:37:20.531Z,90.8
2018-09-15T03:38:21.919Z,90.5
2018-09-15T03:39:23.306Z,90.8
2018-09-15T03:40:24.699Z,91.0
2018-09-15T03:41:26.093Z,91.1
2018-09-15T03:42:27.476Z,91.3
2018-09-15T03:43:28.864Z,91.7
2018-09-15T03:44:30.251Z,91.6
2018-09-15T03:45:31.639Z,91.5
2018-09-15T03:46:33.025Z,92.2
2018-09-15T03:47:34.417Z,91.4
2018-09-15T03:48:35.805Z,92.0
2018-09-15T03:49:37.277Z,92.3
2018-09-15T03:50:38.672Z,92.4
2018-09-15T03:51:40.058Z,92.7
2018-09-15T03:52:41.451Z,92.5
2018-09-15T03:53:42.832Z,92.3
2018-09-15T03:54:44.216Z,92.5
2018-09-15T03:55:45.607Z,92.4
2018-09-15T03:56:46.997Z,92.8
2018-09-15T03:57:48.390Z,93.1
2018-09-15T03:58:49.773Z,92.7
2018-09-15T03:59:51.171Z,92.7
2018-09-15T04:00:52.547Z,92.9
2018-09-15T04:01:53.941Z,93.5
2018-09-15T04:02:55.325Z,93.5
2018-09-15T04:03:56.716Z,93.4
2018-09-15T04:04:58.103Z,93.2
2018-09-15T04:05:59.494Z,93.3
2018-09-15T04:07:00.878Z,93.5
2018-09-15T04:08:02.267Z,94.0
2018-09-15T04:09:03.651Z,93.8
2018-09-15T04:10:05.043Z,94.0
2018-09-15T04:11:06.437Z,94.1
2018-09-15T04:12:07.825Z,93.9
2018-09-15T04:13:09.212Z,94.2
2018-09-15T04:14:10.601Z,94.2
2018-09-15T04:15:11.986Z,94.2
2018-09-15T04:16:13.372Z,95.2
2018-09-15T04:17:14.762Z,94.3
2018-09-15T04:18:16.153Z,94.1
2018-09-15T04:19:17.541Z,94.1
2018-09-15T04:20:18.927Z,94.3
2018-09-15T04:21:20.314Z,94.0
2018-09-15T04:22:21.703Z,94.2
2018-09-15T04:23:23.090Z,94.4
2018-09-15T04:24:24.479Z,94.8
2018-09-15T04:25:25.868Z,94.3
2018-09-15T04:26:27.260Z,94.1
2018-09-15T04:27:28.649Z,94.2
2018-09-15T04:28:30.103Z,94.9
2018-09-15T04:29:31.427Z,95.2
2018-09-15T04:30:32.815Z,95.3
2018-09-15T04:31:34.206Z,95.5
2018-09-15T04:32:35.601Z,95.4
2018-09-15T04:33:37.015Z,95.3
2018-09-15T04:34:38.399Z,95.9
2018-09-15T04:35:39.793Z,95.9
2018-09-15T04:36:41.184Z,96.6
2018-09-15T04:37:42.594Z,96.4
2018-09-15T04:38:44.009Z,96.5
2018-09-15T04:39:45.396Z,96.1
2018-09-15T04:40:46.787Z,96.7
2018-09-15T04:41:48.240Z,96.3
2018-09-15T04:42:49.566Z,96.0
2018-09-15T04:43:50.949Z,96.7
2018-09-15T04:44:52.341Z,96.6
2018-09-15T04:45:53.732Z,96.4
2018-09-15T04:46:55.127Z,96.2
2018-09-15T04:47:56.523Z,96.0
2018-09-15T04:48:57.915Z,96.6
2018-09-15T04:49:59.302Z,96.2
2018-09-15T04:51:00.690Z,96.6
2018-09-15T04:52:02.078Z,97.1
2018-09-15T04:53:03.476Z,97.2
2018-09-15T04:54:04.869Z,97.3
2018-09-15T04:55:06.267Z,98.1
2018-09-15T04:56:07.648Z,97.8
2018-09-15T04:57:09.035Z,97.9
2018-09-15T04:58:10.433Z,97.9
2018-09-15T04:59:11.842Z,98.3
2018-09-15T05:00:13.234Z,99.1
2018-09-15T05:01:14.626Z,99.5
2018-09-15T05:02:16.035Z,99.0
2018-09-15T05:03:17.437Z,99.2
2018-09-15T05:04:18.855Z,99.7
2018-09-15T05:05:20.248Z,100.0
2018-09-15T05:06:21.637Z,100.0
2018-09-15T05:07:23.023Z,100.0
2018-09-15T05:08:24.415Z,100.0
2018-09-15T05:09:25.843Z,100.0
2018-09-15T05:10:27.199Z,100.0
2018-09-15T05:11:28.583Z,100.0
2018-09-15T05:12:29.978Z,100.0
2018-09-15T05:13:31.360Z,100.0
2018-09-15T05:14:32.758Z,100.0
2018-09-15T05:15:34.153Z,100.0
2018-09-15T05:16:35.546Z,100.0
2018-09-15T05:17:36.938Z,100.0
2018-09-15T05:18:38.328Z,100.0
2018-09-15T05:19:39.718Z,100.0
2018-09-15T05:20:41.142Z,100.0
2018-09-15T05:21:42.533Z,100.0
2018-09-15T05:22:43.925Z,100.0
2018-09-15T05:23:45.315Z,100.0
2018-09-15T05:24:46.703Z,100.0
2018-09-15T05:25:48.116Z,100.0
2018-09-15T05:26:49.521Z,100.0
2018-09-15T05:27:50.919Z,100.0
2018-09-15T05:28:52.309Z,100.0
2018-09-15T05:29:53.703Z,100.0
2018-09-15T05:30:55.096Z,100.0
2018-09-15T05:31:56.488Z,100.0
2018-09-15T05:32:57.877Z,100.0
2018-09-15T05:33:59.268Z,100.0
2018-09-15T05:35:00.662Z,100.0
2018-09-15T05:36:02.056Z,100.0
2018-09-15T05:37:03.449Z,100.0
2018-09-15T05:38:04.839Z,100.0
2018-09-15T05:39:06.230Z,100.0
2018-09-15T05:40:07.619Z,100.0
2018-09-15T05:41:09.015Z,100.0
2018-09-15T05:42:10.405Z,100.0
2018-09-15T05:43:11.797Z,100.0
2018-09-15T05:44:13.190Z,100.0
2018-09-15T05:45:14.589Z,100.0
2018-09-15T05:46:15.983Z,100.0
2018-09-15T05:47:17.376Z,100.0
2018-09-15T05:48:18.772Z,100.0
2018-09-15T05:49:20.160Z,100.0
2018-09-15T05:50:21.556Z,100.0
2018-09-15T05:51:22.948Z,100.0
2018-09-15T05:52:24.343Z,100.0
2018-09-15T05:53:25.735Z,100.0
2018-09-15T05:54:27.132Z,100.0
2018-09-15T05:55:28.526Z,100.0
2018-09-15T05:56:29.916Z,100.0
2018-09-15T05:57:31.309Z,100.0
2018-09-15T05:58:32.716Z,100.0
2018-09-15T05:59:34.110Z,100.0
2018-09-15T06:00:35.517Z,100.0
2018-09-15T06:01:36.938Z,100.0
2018-09-15T06:02:38.289Z,100.0
2018-09-15T06:03:39.679Z,100.0
2018-09-15T06:04:41.073Z,100.0
2018-09-15T06:05:42.464Z,100.0
2018-09-15T06:06:43.888Z,100.0
2018-09-15T06:07:45.278Z,100.0
2018-09-15T06:08:46.656Z,100.0
2018-09-15T06:09:48.055Z,100.0
2018-09-15T06:10:49.447Z,100.0
2018-09-15T06:11:50.849Z,100.0
2018-09-15T06:12:52.244Z,100.0
2018-09-15T06:13:53.635Z,100.0
2018-09-15T06:14:55.066Z,100.0
2018-09-15T06:15:56.455Z,100.0
2018-09-15T06:16:57.848Z,100.0
2018-09-15T06:17:59.245Z,100.0
2018-09-15T06:19:00.635Z,100.0
2018-09-15T06:20:02.025Z,100.0
2018-09-15T06:21:03.423Z,100.0
2018-09-15T06:22:04.815Z,100.0
2018-09-15T06:23:06.206Z,100.0
2018-09-15T06:24:07.600Z,100.0
2018-09-15T06:25:08.988Z,100.0
2018-09-15T06:26:10.387Z,100.0
2018-09-15T06:27:11.782Z,100.0
2018-09-15T06:28:13.174Z,100.0
2018-09-15T06:29:14.566Z,100.0
2018-09-15T06:30:15.957Z,100.0
2018-09-15T06:31:17.357Z,100.0
2018-09-15T06:32:18.746Z,100.0
2018-09-15T06:33:20.138Z,100.0
2018-09-15T06:34:21.530Z,100.0
2018-09-15T06:35:22.924Z,100.0
2018-09-15T06:36:24.365Z,100.0
2018-09-15T06:37:25.705Z,100.0
2018-09-15T06:38:27.097Z,100.0
2018-09-15T06:39:28.535Z,100.0
2018-09-15T06:40:29.886Z,100.0
2018-09-15T06:41:35.532Z,100.0
2018-09-15T06:42:35.530Z,99.8
2018-09-15T06:43:36.918Z,100.0
2018-09-15T06:44:38.367Z,100.0
2018-09-15T06:45:39.864Z,100.0
2018-09-15T06:46:41.152Z,99.5
2018-09-15T06:47:42.548Z,99.5
2018-09-15T06:48:43.936Z,99.5
2018-09-15T06:49:45.331Z,99.5
2018-09-15T06:50:46.721Z,99.4
2018-09-15T06:51:48.110Z,99.8
2018-09-15T06:52:49.504Z,100.0
2018-09-15T06:53:50.950Z,99.7
2018-09-15T06:54:52.587Z,99.8
2018-09-15T06:55:53.979Z,99.4
2018-09-15T06:56:55.372Z,99.6
2018-09-15T06:57:56.863Z,100.0
2018-09-15T06:58:58.297Z,99.3
2018-09-15T06:59:59.719Z,99.0
2018-09-15T07:01:01.161Z,98.6
2018-09-15T07:02:02.517Z,98.5
2018-09-15T07:03:03.929Z,98.4
2018-09-15T07:04:05.323Z,97.7
2018-09-15T07:05:06.713Z,97.7
2018-09-15T07:06:08.106Z,97.6
2018-09-15T07:07:09.498Z,97.2
2018-09-15T07:08:10.888Z,97.4
2018-09-15T07:09:12.281Z,97.7
2018-09-15T07:10:13.685Z,97.7
2018-09-15T07:11:15.094Z,97.6
2018-09-15T07:12:16.485Z,97.5
2018-09-15T07:13:17.878Z,97.3
2018-09-15T07:14:19.312Z,97.8
2018-09-15T07:15:20.708Z,97.7
2018-09-15T07:16:22.104Z,97.8
2018-09-15T07:17:23.498Z,97.8
2018-09-15T07:18:24.891Z,97.8
2018-09-15T07:19:26.280Z,97.4
2018-09-15T07:20:27.691Z,97.4
2018-09-15T07:21:29.084Z,97.3
2018-09-15T07:22:30.478Z,96.7
2018-09-15T07:23:31.873Z,95.7
2018-09-15T07:24:33.263Z,96.1
2018-09-15T07:25:34.659Z,95.9
2018-09-15T07:26:36.050Z,95.5
2018-09-15T07:27:37.442Z,95.6
2018-09-15T07:28:38.835Z,95.8
2018-09-15T07:29:40.231Z,95.6
2018-09-15T07:30:41.633Z,96.3
2018-09-15T07:31:43.067Z,96.4
2018-09-15T07:32:44.413Z,96.3
2018-09-15T07:33:45.803Z,96.3
2018-09-15T07:34:47.266Z,96.4
2018-09-15T07:35:48.598Z,96.5
2018-09-15T07:36:49.990Z,96.3
2018-09-15T07:37:51.489Z,95.9
2018-09-15T07:38:52.876Z,95.6
2018-09-15T07:39:54.269Z,95.4
2018-09-15T07:40:55.664Z,94.6
2018-09-15T07:41:57.150Z,94.6
2018-09-15T07:42:58.545Z,95.2
2018-09-15T07:43:59.974Z,95.0
2018-09-15T07:45:01.367Z,95.1
2018-09-15T07:46:02.799Z,94.5
2018-09-15T07:47:04.195Z,93.4
2018-09-15T07:48:05.585Z,94.0
2018-09-15T07:49:06.978Z,93.9
2018-09-15T07:50:08.409Z,94.0
2018-09-15T07:51:09.806Z,93.1
2018-09-15T07:52:11.239Z,92.9
2018-09-15T07:53:12.634Z,93.8
2018-09-15T07:54:14.111Z,93.0
2018-09-15T07:55:15.508Z,93.2
2018-09-15T07:56:16.907Z,92.5
2018-09-15T07:57:18.316Z,93.3
2018-09-15T07:58:19.694Z,93.6
2018-09-15T07:59:21.086Z,93.1
2018-09-15T08:00:22.480Z,91.9
2018-09-15T08:01:23.877Z,91.7
2018-09-15T08:02:25.273Z,91.7
2018-09-15T08:03:26.691Z,91.6
2018-09-15T08:04:28.084Z,91.0
2018-09-15T08:05:29.477Z,90.2
2018-09-15T08:06:30.873Z,90.3
2018-09-15T08:07:32.272Z,90.8
2018-09-15T08:08:33.666Z,89.9
2018-09-15T08:09:35.066Z,89.4
2018-09-15T08:10:36.458Z,89.6
2018-09-15T08:11:37.852Z,88.8
2018-09-15T08:12:39.287Z,88.5
2018-09-15T08:13:40.639Z,89.0
2018-09-15T08:14:42.037Z,88.0
2018-09-15T08:15:43.433Z,88.6
2018-09-15T08:16:44.825Z,89.0
2018-09-15T08:17:46.219Z,88.6
2018-09-15T08:18:47.624Z,89.0
2018-09-15T08:19:49.020Z,87.6
2018-09-15T08:20:50.579Z,88.0
2018-09-15T08:21:51.868Z,87.8
2018-09-15T08:22:53.258Z,88.0
2018-09-15T08:23:54.653Z,88.4
2018-09-15T08:24:56.048Z,88.0
2018-09-15T08:25:57.447Z,87.2
2018-09-15T08:26:58.834Z,86.8
2018-09-15T08:28:00.235Z,86.2
2018-09-15T08:29:01.625Z,86.0
2018-09-15T08:30:03.041Z,86.9
2018-09-15T08:31:04.436Z,86.3
2018-09-15T08:32:05.893Z,85.8
2018-09-15T08:33:07.323Z,85.2
2018-09-15T08:34:08.763Z,85.7
2018-09-15T08:35:10.206Z,85.1
2018-09-15T08:36:11.605Z,85.4
2018-09-15T08:37:13.021Z,85.1
2018-09-15T08:38:14.417Z,84.8
2018-09-15T08:39:15.814Z,84.2
2018-09-15T08:40:17.210Z,83.9
2018-09-15T08:41:18.663Z,84.4
2018-09-15T08:42:19.990Z,84.4
2018-09-15T08:43:21.389Z,83.7
2018-09-15T08:44:22.785Z,83.1
2018-09-15T08:45:24.180Z,82.9
2018-09-15T08:46:25.574Z,83.5
2018-09-15T08:47:26.970Z,83.4
2018-09-15T08:48:28.374Z,83.5
2018-09-15T08:49:29.765Z,83.9
2018-09-15T08:50:31.160Z,84.5
2018-09-15T08:51:32.556Z,84.6
2018-09-15T08:52:33.955Z,83.7
2018-09-15T08:53:35.349Z,83.3
2018-09-15T08:54:36.748Z,82.8
2018-09-15T08:55:38.146Z,82.3
2018-09-15T08:56:39.543Z,81.1
2018-09-15T08:57:40.944Z,80.7
2018-09-15T08:58:42.334Z,80.2
2018-09-15T08:59:43.729Z,79.8
2018-09-15T09:00:45.127Z,80.2
2018-09-15T09:01:46.530Z,79.5
2018-09-15T09:02:47.920Z,79.3
2018-09-15T09:03:49.397Z,79.8
2018-09-15T09:04:50.719Z,78.6
2018-09-15T09:05:52.121Z,79.2
2018-09-15T09:06:53.837Z,79.2
2018-09-15T09:07:55.222Z,78.6
2018-09-15T09:08:56.654Z,77.6
2018-09-15T09:09:58.064Z,77.7
2018-09-15T09:10:59.463Z,77.4
2018-09-15T09:12:00.861Z,77.6
2018-09-15T09:13:02.263Z,75.2
2018-09-15T09:14:03.659Z,75.1
2018-09-15T09:15:05.060Z,73.3
2018-09-15T09:16:06.563Z,72.1
2018-09-15T09:17:07.971Z,71.1
2018-09-15T09:18:09.373Z,71.2
2018-09-15T09:19:10.773Z,69.9
2018-09-15T09:20:12.186Z,69.0
2018-09-15T09:21:13.755Z,67.6
2018-09-15T09:22:15.149Z,68.5
2018-09-15T09:23:16.556Z,69.2
2018-09-15T09:24:17.952Z,69.5
2018-09-15T09:25:19.348Z,70.2
2018-09-15T09:26:20.825Z,69.7
2018-09-15T09:27:22.149Z,68.2
2018-09-15T09:28:23.547Z,68.5
2018-09-15T09:29:24.952Z,69.2
2018-09-15T09:30:26.350Z,69.0
2018-09-15T09:31:27.770Z,69.7
2018-09-15T09:32:29.168Z,70.3
2018-09-15T09:33:30.568Z,71.5
2018-09-15T09:34:31.957Z,72.4
2018-09-15T09:35:33.358Z,73.1
2018-09-15T09:36:34.759Z,73.2
2018-09-15T09:37:36.156Z,74.0
2018-09-15T09:38:37.560Z,73.1
2018-09-15T09:39:38.955Z,72.0
2018-09-15T09:40:40.357Z,71.3
2018-09-15T09:41:41.761Z,70.5
2018-09-15T09:42:43.160Z,70.0
2018-09-15T09:43:44.556Z,69.5
2018-09-15T09:44:45.953Z,68.1
2018-09-15T09:45:47.361Z,68.5
2018-09-15T09:46:48.757Z,67.3
2018-09-15T09:47:50.194Z,66.2
2018-09-15T09:48:51.557Z,65.1
2018-09-15T09:49:52.954Z,64.7
2018-09-15T09:50:54.361Z,63.5
2018-09-15T09:51:55.755Z,63.4
2018-09-15T09:52:57.188Z,62.2
2018-09-15T09:53:58.599Z,60.6
2018-09-15T09:54:59.998Z,60.0
2018-09-15T09:56:01.399Z,58.1
2018-09-15T09:57:02.797Z,57.8
2018-09-15T09:58:04.198Z,57.0
2018-09-15T09:59:05.597Z,57.7
2018-09-15T10:00:06.995Z,56.6
2018-09-15T10:01:08.418Z,57.0
2018-09-15T10:02:09.791Z,56.1
2018-09-15T10:03:11.196Z,56.2
2018-09-15T10:04:12.601Z,56.2
2018-09-15T10:05:13.997Z,56.0
2018-09-15T10:06:15.504Z,55.2
2018-09-15T10:07:16.913Z,55.4
2018-09-15T10:08:18.316Z,54.7
2018-09-15T10:09:19.717Z,54.7
2018-09-15T10:10:21.123Z,53.7
2018-09-15T10:11:22.520Z,53.5
2018-09-15T10:12:23.926Z,52.7
2018-09-15T10:13:25.328Z,53.8
2018-09-15T10:14:26.793Z,54.3
2018-09-15T10:15:28.193Z,52.6
2018-09-15T10:16:29.595Z,53.4
2018-09-15T10:17:30.997Z,53.7
2018-09-15T10:18:32.403Z,53.3
2018-09-15T10:19:33.801Z,52.9
2018-09-15T10:20:35.199Z,54.2
2018-09-15T10:21:36.674Z,55.8
2018-09-15T10:22:38.020Z,56.4
2018-09-15T10:23:39.421Z,56.4
2018-09-15T10:24:40.827Z,57.3
2018-09-15T10:25:42.216Z,56.9
2018-09-15T10:26:43.614Z,57.9
2018-09-15T10:27:45.770Z,57.8
2018-09-15T10:28:47.175Z,58.3
2018-09-15T10:29:48.584Z,58.0
2018-09-15T10:30:50.050Z,58.0
2018-09-15T10:31:51.469Z,57.7
2018-09-15T10:32:52.879Z,58.0
2018-09-15T10:33:54.281Z,59.1
2018-09-15T10:34:55.676Z,59.1
2018-09-15T10:35:57.082Z,58.9
2018-09-15T10:36:58.500Z,58.8
2018-09-15T10:37:59.899Z,59.3
2018-09-15T10:39:01.298Z,58.4
2018-09-15T10:40:02.739Z,58.0
2018-09-15T10:41:04.147Z,59.2
2018-09-15T10:42:05.550Z,60.1
2018-09-15T10:43:06.946Z,60.1
2018-09-15T10:44:08.348Z,60.2
2018-09-15T10:45:09.751Z,60.5
2018-09-15T10:46:11.152Z,60.4
2018-09-15T10:47:12.551Z,59.1
2018-09-15T10:48:13.952Z,59.1
2018-09-15T10:49:15.346Z,59.0
2018-09-15T10:50:16.747Z,58.3
2018-09-15T10:51:18.147Z,58.3
2018-09-15T10:52:19.607Z,58.4
2018-09-15T10:53:20.984Z,57.8
2018-09-15T10:54:22.383Z,55.4
2018-09-15T10:55:23.781Z,54.9
2018-09-15T10:56:25.181Z,56.3
2018-09-15T10:57:26.582Z,56.7
2018-09-15T10:58:27.984Z,56.8
2018-09-15T10:59:29.388Z,57.1
2018-09-15T11:00:30.828Z,57.4
2018-09-15T11:01:32.194Z,58.4
2018-09-15T11:02:33.591Z,59.1
2018-09-15T11:03:34.991Z,58.3
2018-09-15T11:04:36.468Z,58.9
2018-09-15T11:05:37.871Z,58.4
2018-09-15T11:06:39.272Z,58.3
2018-09-15T11:07:40.679Z,57.4
2018-09-15T11:08:42.081Z,57.8
2018-09-15T11:09:43.474Z,56.3
2018-09-15T11:10:44.875Z,55.9
2018-09-15T11:11:46.268Z,56.3
2018-09-15T11:12:47.774Z,56.5
2018-09-15T11:13:49.210Z,57.1
2018-09-15T11:14:50.575Z,56.9
2018-09-15T11:15:51.977Z,57.2
2018-09-15T11:16:53.375Z,56.6
2018-09-15T11:17:54.773Z,55.1
2018-09-15T11:18:56.169Z,56.3
2018-09-15T11:19:57.608Z,56.3
2018-09-15T11:20:59.036Z,56.4
2018-09-15T11:22:00.430Z,56.1
2018-09-15T11:23:01.867Z,56.0
2018-09-15T11:24:03.264Z,56.2
2018-09-15T11:25:04.702Z,52.3
2018-09-15T11:26:06.098Z,50.1
2018-09-15T11:27:07.502Z,50.9
2018-09-15T11:28:08.913Z,52.6
2018-09-15T11:29:10.325Z,52.6
2018-09-15T11:30:11.724Z,52.2
2018-09-15T11:31:13.135Z,52.7
2018-09-15T11:32:14.536Z,52.7
2018-09-15T11:33:15.940Z,51.5
2018-09-15T11:34:17.346Z,50.4
2018-09-15T11:35:18.751Z,51.0
2018-09-15T11:36:20.153Z,50.3
2018-09-15T11:37:21.578Z,49.8
2018-09-15T11:38:23.059Z,49.0
2018-09-15T11:39:24.483Z,50.0
2018-09-15T11:40:25.884Z,49.3
2018-09-15T11:41:27.300Z,49.4
2018-09-15T11:42:28.706Z,49.9
2018-09-15T11:43:30.115Z,49.7
2018-09-15T11:44:31.513Z,49.8
2018-09-15T11:45:32.911Z,50.1
2018-09-15T11:46:34.344Z,50.2
2018-09-15T11:47:35.747Z,50.1
2018-09-15T11:48:37.148Z,51.3
2018-09-15T11:49:38.549Z,51.0
2018-09-15T11:50:39.958Z,51.3
2018-09-15T11:51:41.382Z,49.8
2018-09-15T11:52:42.794Z,49.1
2018-09-15T11:53:44.285Z,49.1
2018-09-15T11:54:45.675Z,49.1
2018-09-15T11:55:47.083Z,48.5
2018-09-15T11:56:48.493Z,49.0
2018-09-15T11:57:49.893Z,49.7
2018-09-15T11:58:51.302Z,50.9
2018-09-15T11:59:52.740Z,51.8
2018-09-15T12:00:54.099Z,51.1
2018-09-15T12:01:55.506Z,51.1
2018-09-15T12:02:56.897Z,51.0
2018-09-15T12:03:58.846Z,50.9
2018-09-15T12:05:00.247Z,51.0
2018-09-15T12:06:01.646Z,49.3
2018-09-15T12:07:03.043Z,49.3
2018-09-15T12:08:04.460Z,50.1
2018-09-15T12:09:05.859Z,49.9
2018-09-15T12:10:07.261Z,50.0
2018-09-15T12:11:08.662Z,50.2
2018-09-15T12:12:10.071Z,49.8
2018-09-15T12:13:11.462Z,49.1
2018-09-15T12:14:12.867Z,48.8
2018-09-15T12:15:14.263Z,48.0
2018-09-15T12:16:15.661Z,48.1
2018-09-15T12:17:17.063Z,48.3
2018-09-15T12:18:18.463Z,48.8
2018-09-15T12:19:19.865Z,48.4
2018-09-15T12:20:21.264Z,48.3
2018-09-15T12:21:22.692Z,48.4
2018-09-15T12:22:24.060Z,48.7
2018-09-15T12:23:25.478Z,48.9
2018-09-15T12:24:26.897Z,49.3
2018-09-15T12:25:28.305Z,49.3
2018-09-15T12:26:29.700Z,48.9
2018-09-15T12:27:31.099Z,48.6
2018-09-15T12:28:32.494Z,48.9
2018-09-15T12:29:33.894Z,49.4
2018-09-15T12:30:35.296Z,50.1
2018-09-15T12:31:36.693Z,50.1
2018-09-15T12:32:38.095Z,49.8
2018-09-15T12:33:39.535Z,49.3
2018-09-15T12:34:40.900Z,48.7
2018-09-15T12:35:42.307Z,49.1
2018-09-15T12:36:43.709Z,48.3
2018-09-15T12:37:45.117Z,46.8
2018-09-15T12:38:46.518Z,46.1
2018-09-15T12:39:47.920Z,46.0
2018-09-15T12:40:49.324Z,46.1
2018-09-15T12:41:50.723Z,46.3
2018-09-15T12:42:52.123Z,45.6
2018-09-15T12:43:53.532Z,45.1
2018-09-15T12:44:54.975Z,44.4
2018-09-15T12:45:56.330Z,45.3
2018-09-15T12:46:57.739Z,46.4
2018-09-15T12:47:59.139Z,46.5
2018-09-15T12:49:00.547Z,46.7
2018-09-15T12:50:01.945Z,46.4
2018-09-15T12:51:03.344Z,46.4
2018-09-15T12:52:04.833Z,44.9
2018-09-15T12:53:06.146Z,44.2
2018-09-15T12:54:07.545Z,44.4
2018-09-15T12:55:08.949Z,44.7
2018-09-15T12:56:10.345Z,44.7
2018-09-15T12:57:11.746Z,46.0
2018-09-15T12:58:13.477Z,46.0
2018-09-15T12:59:14.871Z,46.1
2018-09-15T13:00:16.277Z,46.7
2018-09-15T13:01:17.835Z,47.0
2018-09-15T13:02:19.210Z,47.1
2018-09-15T13:03:20.608Z,46.4
2018-09-15T13:04:22.009Z,46.4
2018-09-15T13:05:23.412Z,46.6
2018-09-15T13:06:24.830Z,45.5
2018-09-15T13:07:26.213Z,45.2
2018-09-15T13:08:27.615Z,46.1
2018-09-15T13:09:29.023Z,46.6
2018-09-15T13:10:30.540Z,46.2
2018-09-15T13:11:31.936Z,46.5
2018-09-15T13:12:33.474Z,47.1
2018-09-15T13:13:34.875Z,47.0
2018-09-15T13:14:36.444Z,47.4
2018-09-15T13:15:37.928Z,47.6
2018-09-15T13:16:39.245Z,46.7
2018-09-15T13:17:40.698Z,47.0
2018-09-15T13:18:42.041Z,48.7
2018-09-15T13:19:43.440Z,48.6
2018-09-15T13:20:44.835Z,48.7
2018-09-15T13:21:46.237Z,48.6
2018-09-15T13:22:47.637Z,48.7
2018-09-15T13:23:49.135Z,49.0
2018-09-15T13:24:50.436Z,49.2
2018-09-15T13:25:51.843Z,48.6
2018-09-15T13:26:53.251Z,48.3
2018-09-15T13:27:54.945Z,48.6
2018-09-15T13:28:56.358Z,48.3
2018-09-15T13:29:57.830Z,48.2
2018-09-15T13:30:59.157Z,48.6
2018-09-15T13:32:00.546Z,49.1
2018-09-15T13:33:01.940Z,48.8
2018-09-15T13:34:03.338Z,48.6